sensor_id;sensor_type;location;lat;lon;timestamp;P1;durP1;ratioP1;P2;durP2;ratioP2
81908;SDS011;71372;43.514;1.512;2023-11-21T00:00:20;11.35;;;1.75;;
81908;SDS011;71372;43.514;1.512;2023-11-21T00:02:46;10.82;;;1.80;;
81908;SDS011;71372;43.514;1.512;2023-11-21T00:05:13;7.88;;;1.20;;
81908;SDS011;71372;43.514;1.512;2023-11-21T00:07:40;9.10;;;1.45;;
81908;SDS011;71372;43.514;1.512;2023-11-21T00:10:07;9.85;;;1.70;;
81908;SDS011;71372;43.514;1.512;2023-11-21T00:12:34;9.85;;;1.40;;
81908;SDS011;71372;43.514;1.512;2023-11-21T00:15:00;10.57;;;1.35;;
81908;SDS011;71372;43.514;1.512;2023-11-21T00:17:27;9.60;;;1.48;;
81908;SDS011;71372;43.514;1.512;2023-11-21T00:19:53;6.57;;;1.17;;
81908;SDS011;71372;43.514;1.512;2023-11-21T00:22:19;9.65;;;1.50;;
81908;SDS011;71372;43.514;1.512;2023-11-21T00:24:46;14.50;;;1.58;;
81908;SDS011;71372;43.514;1.512;2023-11-21T00:27:13;10.55;;;1.75;;
81908;SDS011;71372;43.514;1.512;2023-11-21T00:29:40;8.90;;;1.85;;
81908;SDS011;71372;43.514;1.512;2023-11-21T00:32:06;8.55;;;1.20;;
81908;SDS011;71372;43.514;1.512;2023-11-21T00:34:32;9.65;;;1.48;;
81908;SDS011;71372;43.514;1.512;2023-11-21T00:36:58;6.82;;;1.10;;
81908;SDS011;71372;43.514;1.512;2023-11-21T00:39:24;7.80;;;1.25;;
81908;SDS011;71372;43.514;1.512;2023-11-21T00:41:51;10.13;;;1.42;;
81908;SDS011;71372;43.514;1.512;2023-11-21T00:44:18;3.75;;;0.90;;
81908;SDS011;71372;43.514;1.512;2023-11-21T00:46:44;10.75;;;1.70;;
81908;SDS011;71372;43.514;1.512;2023-11-21T00:49:10;3.72;;;1.42;;
81908;SDS011;71372;43.514;1.512;2023-11-21T00:51:36;11.75;;;1.52;;
81908;SDS011;71372;43.514;1.512;2023-11-21T00:54:02;10.05;;;1.75;;
81908;SDS011;71372;43.514;1.512;2023-11-21T00:56:28;10.65;;;1.25;;
81908;SDS011;71372;43.514;1.512;2023-11-21T00:58:54;5.88;;;1.00;;
81908;SDS011;71372;43.514;1.512;2023-11-21T01:01:20;6.38;;;1.00;;
81908;SDS011;71372;43.514;1.512;2023-11-21T01:03:50;6.97;;;1.13;;
81908;SDS011;71372;43.514;1.512;2023-11-21T01:06:16;7.97;;;1.27;;
81908;SDS011;71372;43.514;1.512;2023-11-21T01:08:45;5.20;;;1.05;;
81908;SDS011;71372;43.514;1.512;2023-11-21T01:11:12;9.18;;;1.00;;
81908;SDS011;71372;43.514;1.512;2023-11-21T01:13:38;8.75;;;1.25;;
81908;SDS011;71372;43.514;1.512;2023-11-21T01:16:05;8.60;;;1.20;;
81908;SDS011;71372;43.514;1.512;2023-11-21T01:18:35;7.15;;;0.82;;
81908;SDS011;71372;43.514;1.512;2023-11-21T01:21:01;6.68;;;0.90;;
81908;SDS011;71372;43.514;1.512;2023-11-21T01:23:27;8.93;;;1.00;;
81908;SDS011;71372;43.514;1.512;2023-11-21T01:25:54;11.05;;;1.48;;
81908;SDS011;71372;43.514;1.512;2023-11-21T01:28:21;6.55;;;1.00;;
81908;SDS011;71372;43.514;1.512;2023-11-21T01:30:47;7.25;;;1.13;;
81908;SDS011;71372;43.514;1.512;2023-11-21T01:33:14;10.82;;;1.58;;
81908;SDS011;71372;43.514;1.512;2023-11-21T01:35:41;7.72;;;0.95;;
81908;SDS011;71372;43.514;1.512;2023-11-21T01:38:08;5.75;;;0.85;;
81908;SDS011;71372;43.514;1.512;2023-11-21T01:40:34;6.00;;;0.70;;
81908;SDS011;71372;43.514;1.512;2023-11-21T01:43:00;5.18;;;0.77;;
81908;SDS011;71372;43.514;1.512;2023-11-21T01:45:29;4.95;;;0.82;;
81908;SDS011;71372;43.514;1.512;2023-11-21T01:47:59;5.47;;;0.95;;
81908;SDS011;71372;43.514;1.512;2023-11-21T01:50:26;7.00;;;0.90;;
81908;SDS011;71372;43.514;1.512;2023-11-21T01:52:53;8.57;;;1.02;;
81908;SDS011;71372;43.514;1.512;2023-11-21T01:55:19;3.80;;;0.82;;
81908;SDS011;71372;43.514;1.512;2023-11-21T01:57:46;5.65;;;0.80;;
81908;SDS011;71372;43.514;1.512;2023-11-21T02:00:13;5.75;;;0.60;;
81908;SDS011;71372;43.514;1.512;2023-11-21T02:02:45;5.80;;;1.10;;
81908;SDS011;71372;43.514;1.512;2023-11-21T02:05:13;8.75;;;0.90;;
81908;SDS011;71372;43.514;1.512;2023-11-21T02:07:46;4.10;;;0.40;;
81908;SDS011;71372;43.514;1.512;2023-11-21T02:10:15;6.40;;;1.23;;
81908;SDS011;71372;43.514;1.512;2023-11-21T02:12:42;7.60;;;1.20;;
81908;SDS011;71372;43.514;1.512;2023-11-21T02:15:09;6.47;;;0.60;;
81908;SDS011;71372;43.514;1.512;2023-11-21T02:17:41;10.18;;;1.13;;
81908;SDS011;71372;43.514;1.512;2023-11-21T02:20:12;7.40;;;0.80;;
81908;SDS011;71372;43.514;1.512;2023-11-21T02:25:25;3.55;;;1.10;;
81908;SDS011;71372;43.514;1.512;2023-11-21T02:27:56;4.53;;;0.80;;
81908;SDS011;71372;43.514;1.512;2023-11-21T02:30:22;2.38;;;0.40;;
81908;SDS011;71372;43.514;1.512;2023-11-21T02:32:51;3.13;;;0.60;;
81908;SDS011;71372;43.514;1.512;2023-11-21T02:35:18;2.88;;;0.68;;
81908;SDS011;71372;43.514;1.512;2023-11-21T02:37:48;3.70;;;0.70;;
81908;SDS011;71372;43.514;1.512;2023-11-21T02:40:14;6.53;;;0.80;;
81908;SDS011;71372;43.514;1.512;2023-11-21T02:42:44;6.22;;;2.10;;
81908;SDS011;71372;43.514;1.512;2023-11-21T02:45:10;6.53;;;0.70;;
81908;SDS011;71372;43.514;1.512;2023-11-21T02:47:38;5.95;;;0.60;;
81908;SDS011;71372;43.514;1.512;2023-11-21T02:50:05;1.70;;;0.57;;
81908;SDS011;71372;43.514;1.512;2023-11-21T02:52:34;4.10;;;0.70;;
81908;SDS011;71372;43.514;1.512;2023-11-21T02:55:01;3.65;;;0.63;;
81908;SDS011;71372;43.514;1.512;2023-11-21T02:57:28;6.78;;;0.90;;
81908;SDS011;71372;43.514;1.512;2023-11-21T02:59:54;5.97;;;0.80;;
81908;SDS011;71372;43.514;1.512;2023-11-21T03:02:20;8.18;;;0.80;;
81908;SDS011;71372;43.514;1.512;2023-11-21T03:04:47;4.75;;;1.15;;
81908;SDS011;71372;43.514;1.512;2023-11-21T03:07:16;6.75;;;1.00;;
81908;SDS011;71372;43.514;1.512;2023-11-21T03:09:47;5.18;;;0.68;;
81908;SDS011;71372;43.514;1.512;2023-11-21T03:12:13;4.05;;;0.90;;
81908;SDS011;71372;43.514;1.512;2023-11-21T03:14:39;7.68;;;0.70;;
81908;SDS011;71372;43.514;1.512;2023-11-21T03:17:05;8.20;;;0.77;;
81908;SDS011;71372;43.514;1.512;2023-11-21T03:19:32;4.57;;;0.60;;
81908;SDS011;71372;43.514;1.512;2023-11-21T03:21:58;5.07;;;0.63;;
81908;SDS011;71372;43.514;1.512;2023-11-21T03:24:24;3.83;;;0.70;;
81908;SDS011;71372;43.514;1.512;2023-11-21T03:26:52;7.38;;;0.90;;
81908;SDS011;71372;43.514;1.512;2023-11-21T03:29:18;5.72;;;0.90;;
81908;SDS011;71372;43.514;1.512;2023-11-21T03:31:44;6.20;;;0.90;;
81908;SDS011;71372;43.514;1.512;2023-11-21T03:34:14;3.55;;;0.60;;
81908;SDS011;71372;43.514;1.512;2023-11-21T03:36:41;3.35;;;1.15;;
81908;SDS011;71372;43.514;1.512;2023-11-21T03:39:07;8.43;;;1.17;;
81908;SDS011;71372;43.514;1.512;2023-11-21T03:41:33;5.35;;;0.60;;
81908;SDS011;71372;43.514;1.512;2023-11-21T03:43:59;5.70;;;0.60;;
81908;SDS011;71372;43.514;1.512;2023-11-21T03:46:25;4.80;;;0.80;;
81908;SDS011;71372;43.514;1.512;2023-11-21T03:48:51;3.53;;;0.60;;
81908;SDS011;71372;43.514;1.512;2023-11-21T03:51:17;7.68;;;0.93;;
81908;SDS011;71372;43.514;1.512;2023-11-21T03:53:43;3.13;;;0.70;;
81908;SDS011;71372;43.514;1.512;2023-11-21T03:56:09;3.65;;;0.73;;
81908;SDS011;71372;43.514;1.512;2023-11-21T03:58:35;2.58;;;0.55;;
81908;SDS011;71372;43.514;1.512;2023-11-21T04:01:01;6.32;;;1.15;;
81908;SDS011;71372;43.514;1.512;2023-11-21T04:03:27;3.15;;;0.60;;
81908;SDS011;71372;43.514;1.512;2023-11-21T04:05:53;3.65;;;0.68;;
81908;SDS011;71372;43.514;1.512;2023-11-21T04:08:19;7.20;;;0.60;;
81908;SDS011;71372;43.514;1.512;2023-11-21T04:10:45;4.20;;;0.60;;
81908;SDS011;71372;43.514;1.512;2023-11-21T04:13:11;8.02;;;0.90;;
81908;SDS011;71372;43.514;1.512;2023-11-21T04:15:36;5.95;;;0.80;;
81908;SDS011;71372;43.514;1.512;2023-11-21T04:18:02;7.20;;;1.15;;
81908;SDS011;71372;43.514;1.512;2023-11-21T04:20:28;6.97;;;0.88;;
81908;SDS011;71372;43.514;1.512;2023-11-21T04:22:54;4.95;;;0.60;;
81908;SDS011;71372;43.514;1.512;2023-11-21T04:25:20;3.53;;;0.65;;
81908;SDS011;71372;43.514;1.512;2023-11-21T04:27:46;6.68;;;0.80;;
81908;SDS011;71372;43.514;1.512;2023-11-21T04:30:12;5.15;;;0.75;;
81908;SDS011;71372;43.514;1.512;2023-11-21T04:32:39;3.90;;;0.80;;
81908;SDS011;71372;43.514;1.512;2023-11-21T04:35:05;6.53;;;0.85;;
81908;SDS011;71372;43.514;1.512;2023-11-21T04:37:31;4.03;;;0.55;;
81908;SDS011;71372;43.514;1.512;2023-11-21T04:39:57;8.00;;;0.90;;
81908;SDS011;71372;43.514;1.512;2023-11-21T04:42:23;6.78;;;0.60;;
81908;SDS011;71372;43.514;1.512;2023-11-21T04:44:49;10.45;;;0.82;;
81908;SDS011;71372;43.514;1.512;2023-11-21T04:47:15;6.68;;;0.80;;
81908;SDS011;71372;43.514;1.512;2023-11-21T04:49:41;6.38;;;0.80;;
81908;SDS011;71372;43.514;1.512;2023-11-21T04:52:09;4.63;;;0.70;;
81908;SDS011;71372;43.514;1.512;2023-11-21T04:54:35;6.22;;;0.70;;
81908;SDS011;71372;43.514;1.512;2023-11-21T04:57:01;4.70;;;0.52;;
81908;SDS011;71372;43.514;1.512;2023-11-21T04:59:27;4.57;;;0.68;;
81908;SDS011;71372;43.514;1.512;2023-11-21T05:01:53;4.15;;;0.73;;
81908;SDS011;71372;43.514;1.512;2023-11-21T05:04:20;8.20;;;0.68;;
81908;SDS011;71372;43.514;1.512;2023-11-21T05:06:48;6.45;;;0.68;;
81908;SDS011;71372;43.514;1.512;2023-11-21T05:09:14;6.28;;;0.50;;
81908;SDS011;71372;43.514;1.512;2023-11-21T05:11:41;7.63;;;0.70;;
81908;SDS011;71372;43.514;1.512;2023-11-21T05:14:07;8.35;;;1.13;;
81908;SDS011;71372;43.514;1.512;2023-11-21T05:16:34;3.17;;;0.85;;
81908;SDS011;71372;43.514;1.512;2023-11-21T05:19:00;8.05;;;0.65;;
81908;SDS011;71372;43.514;1.512;2023-11-21T05:21:27;2.25;;;0.38;;
81908;SDS011;71372;43.514;1.512;2023-11-21T05:23:53;5.22;;;0.90;;
81908;SDS011;71372;43.514;1.512;2023-11-21T05:26:19;4.55;;;0.60;;
81908;SDS011;71372;43.514;1.512;2023-11-21T05:28:46;5.15;;;0.60;;
81908;SDS011;71372;43.514;1.512;2023-11-21T05:31:11;4.55;;;0.50;;
81908;SDS011;71372;43.514;1.512;2023-11-21T05:33:37;4.30;;;0.95;;
81908;SDS011;71372;43.514;1.512;2023-11-21T05:36:03;5.03;;;1.13;;
81908;SDS011;71372;43.514;1.512;2023-11-21T05:38:29;4.88;;;0.40;;
81908;SDS011;71372;43.514;1.512;2023-11-21T05:40:55;4.30;;;0.52;;
81908;SDS011;71372;43.514;1.512;2023-11-21T05:43:21;4.65;;;0.52;;
81908;SDS011;71372;43.514;1.512;2023-11-21T05:45:47;2.60;;;0.60;;
81908;SDS011;71372;43.514;1.512;2023-11-21T05:48:13;3.55;;;0.57;;
81908;SDS011;71372;43.514;1.512;2023-11-21T05:50:39;6.28;;;0.50;;
81908;SDS011;71372;43.514;1.512;2023-11-21T05:53:05;7.78;;;0.82;;
81908;SDS011;71372;43.514;1.512;2023-11-21T05:55:31;2.17;;;0.60;;
81908;SDS011;71372;43.514;1.512;2023-11-21T05:57:57;3.45;;;0.40;;
81908;SDS011;71372;43.514;1.512;2023-11-21T06:00:23;3.05;;;0.60;;
81908;SDS011;71372;43.514;1.512;2023-11-21T06:02:51;3.40;;;0.40;;
81908;SDS011;71372;43.514;1.512;2023-11-21T06:05:19;5.50;;;0.70;;
81908;SDS011;71372;43.514;1.512;2023-11-21T06:07:46;3.25;;;0.40;;
81908;SDS011;71372;43.514;1.512;2023-11-21T06:10:12;3.33;;;0.43;;
81908;SDS011;71372;43.514;1.512;2023-11-21T06:12:40;3.97;;;0.60;;
81908;SDS011;71372;43.514;1.512;2023-11-21T06:15:08;3.53;;;0.70;;
81908;SDS011;71372;43.514;1.512;2023-11-21T06:17:35;4.88;;;0.80;;
81908;SDS011;71372;43.514;1.512;2023-11-21T06:20:08;2.75;;;0.50;;
81908;SDS011;71372;43.514;1.512;2023-11-21T06:22:37;3.75;;;0.60;;
81908;SDS011;71372;43.514;1.512;2023-11-21T06:25:04;4.40;;;0.50;;
81908;SDS011;71372;43.514;1.512;2023-11-21T06:27:37;3.00;;;0.40;;
81908;SDS011;71372;43.514;1.512;2023-11-21T06:30:05;4.22;;;0.63;;
81908;SDS011;71372;43.514;1.512;2023-11-21T06:32:35;3.78;;;0.50;;
81908;SDS011;71372;43.514;1.512;2023-11-21T06:35:02;3.85;;;0.88;;
81908;SDS011;71372;43.514;1.512;2023-11-21T06:37:29;3.67;;;0.60;;
81908;SDS011;71372;43.514;1.512;2023-11-21T06:39:57;5.03;;;0.80;;
81908;SDS011;71372;43.514;1.512;2023-11-21T06:42:27;3.30;;;0.32;;
81908;SDS011;71372;43.514;1.512;2023-11-21T06:44:54;2.15;;;0.45;;
81908;SDS011;71372;43.514;1.512;2023-11-21T06:47:23;4.03;;;0.50;;
81908;SDS011;71372;43.514;1.512;2023-11-21T06:49:53;3.67;;;0.52;;
81908;SDS011;71372;43.514;1.512;2023-11-21T06:52:19;4.90;;;0.77;;
81908;SDS011;71372;43.514;1.512;2023-11-21T06:54:45;3.55;;;0.50;;
81908;SDS011;71372;43.514;1.512;2023-11-21T06:57:13;4.95;;;0.50;;
81908;SDS011;71372;43.514;1.512;2023-11-21T06:59:39;3.15;;;0.68;;
81908;SDS011;71372;43.514;1.512;2023-11-21T07:02:05;4.45;;;0.70;;
81908;SDS011;71372;43.514;1.512;2023-11-21T07:04:37;2.97;;;0.55;;
81908;SDS011;71372;43.514;1.512;2023-11-21T07:07:04;4.82;;;0.50;;
81908;SDS011;71372;43.514;1.512;2023-11-21T07:09:32;4.00;;;0.50;;
81908;SDS011;71372;43.514;1.512;2023-11-21T07:11:58;3.58;;;0.80;;
81908;SDS011;71372;43.514;1.512;2023-11-21T07:14:24;2.22;;;0.50;;
81908;SDS011;71372;43.514;1.512;2023-11-21T07:16:50;4.00;;;0.50;;
81908;SDS011;71372;43.514;1.512;2023-11-21T07:21:43;2.13;;;0.43;;
81908;SDS011;71372;43.514;1.512;2023-11-21T07:24:09;3.58;;;0.55;;
81908;SDS011;71372;43.514;1.512;2023-11-21T07:26:36;2.92;;;0.40;;
81908;SDS011;71372;43.514;1.512;2023-11-21T07:29:03;3.58;;;0.50;;
81908;SDS011;71372;43.514;1.512;2023-11-21T07:31:29;1.90;;;0.43;;
81908;SDS011;71372;43.514;1.512;2023-11-21T07:33:55;2.17;;;0.50;;
81908;SDS011;71372;43.514;1.512;2023-11-21T07:36:24;2.25;;;0.50;;
81908;SDS011;71372;43.514;1.512;2023-11-21T07:38:51;1.85;;;0.60;;
81908;SDS011;71372;43.514;1.512;2023-11-21T07:41:17;3.70;;;0.85;;
81908;SDS011;71372;43.514;1.512;2023-11-21T07:43:44;6.28;;;0.80;;
81908;SDS011;71372;43.514;1.512;2023-11-21T07:46:11;4.00;;;0.75;;
81908;SDS011;71372;43.514;1.512;2023-11-21T07:48:40;2.78;;;0.82;;
81908;SDS011;71372;43.514;1.512;2023-11-21T07:51:11;5.68;;;1.00;;
81908;SDS011;71372;43.514;1.512;2023-11-21T07:53:38;3.75;;;1.23;;
81908;SDS011;71372;43.514;1.512;2023-11-21T07:56:05;3.03;;;0.85;;
81908;SDS011;71372;43.514;1.512;2023-11-21T07:58:34;2.33;;;0.80;;
81908;SDS011;71372;43.514;1.512;2023-11-21T08:01:01;3.47;;;0.70;;
81908;SDS011;71372;43.514;1.512;2023-11-21T08:03:28;2.78;;;0.80;;
81908;SDS011;71372;43.514;1.512;2023-11-21T08:05:56;1.88;;;0.60;;
81908;SDS011;71372;43.514;1.512;2023-11-21T08:08:25;5.00;;;0.68;;
81908;SDS011;71372;43.514;1.512;2023-11-21T08:10:52;1.65;;;0.50;;
81908;SDS011;71372;43.514;1.512;2023-11-21T08:13:25;1.80;;;0.50;;
81908;SDS011;71372;43.514;1.512;2023-11-21T08:15:55;3.10;;;0.57;;
81908;SDS011;71372;43.514;1.512;2023-11-21T08:18:23;3.70;;;0.60;;
81908;SDS011;71372;43.514;1.512;2023-11-21T08:20:50;2.58;;;0.52;;
81908;SDS011;71372;43.514;1.512;2023-11-21T08:23:16;2.88;;;0.82;;
81908;SDS011;71372;43.514;1.512;2023-11-21T08:25:46;2.63;;;0.90;;
81908;SDS011;71372;43.514;1.512;2023-11-21T08:28:12;1.95;;;0.77;;
81908;SDS011;71372;43.514;1.512;2023-11-21T08:30:41;3.20;;;0.75;;
81908;SDS011;71372;43.514;1.512;2023-11-21T08:33:08;1.70;;;0.60;;
81908;SDS011;71372;43.514;1.512;2023-11-21T08:35:34;1.77;;;1.00;;
81908;SDS011;71372;43.514;1.512;2023-11-21T08:38:02;2.75;;;1.30;;
81908;SDS011;71372;43.514;1.512;2023-11-21T08:40:28;2.25;;;0.75;;
81908;SDS011;71372;43.514;1.512;2023-11-21T08:42:54;1.98;;;0.70;;
81908;SDS011;71372;43.514;1.512;2023-11-21T08:45:21;2.55;;;0.82;;
81908;SDS011;71372;43.514;1.512;2023-11-21T08:47:47;2.72;;;1.13;;
81908;SDS011;71372;43.514;1.512;2023-11-21T08:50:14;2.85;;;1.05;;
81908;SDS011;71372;43.514;1.512;2023-11-21T08:52:40;5.13;;;1.60;;
81908;SDS011;71372;43.514;1.512;2023-11-21T08:55:07;3.67;;;1.00;;
81908;SDS011;71372;43.514;1.512;2023-11-21T08:57:37;2.03;;;1.17;;
81908;SDS011;71372;43.514;1.512;2023-11-21T09:00:03;2.10;;;0.77;;
81908;SDS011;71372;43.514;1.512;2023-11-21T09:02:33;8.95;;;1.45;;
81908;SDS011;71372;43.514;1.512;2023-11-21T09:05:00;3.22;;;1.00;;
81908;SDS011;71372;43.514;1.512;2023-11-21T09:07:29;4.45;;;0.85;;
81908;SDS011;71372;43.514;1.512;2023-11-21T09:09:55;4.03;;;1.08;;
81908;SDS011;71372;43.514;1.512;2023-11-21T09:12:21;2.65;;;0.90;;
81908;SDS011;71372;43.514;1.512;2023-11-21T09:14:47;2.42;;;0.70;;
81908;SDS011;71372;43.514;1.512;2023-11-21T09:17:13;1.60;;;0.70;;
81908;SDS011;71372;43.514;1.512;2023-11-21T09:19:40;3.85;;;0.75;;
81908;SDS011;71372;43.514;1.512;2023-11-21T09:22:06;9.40;;;1.13;;
81908;SDS011;71372;43.514;1.512;2023-11-21T09:24:33;2.03;;;0.50;;
81908;SDS011;71372;43.514;1.512;2023-11-21T09:26:59;6.50;;;1.30;;
81908;SDS011;71372;43.514;1.512;2023-11-21T09:29:28;2.15;;;0.70;;
81908;SDS011;71372;43.514;1.512;2023-11-21T09:31:54;4.05;;;0.80;;
81908;SDS011;71372;43.514;1.512;2023-11-21T09:34:22;1.50;;;0.65;;
81908;SDS011;71372;43.514;1.512;2023-11-21T09:36:48;2.65;;;0.80;;
81908;SDS011;71372;43.514;1.512;2023-11-21T09:39:15;4.60;;;0.80;;
81908;SDS011;71372;43.514;1.512;2023-11-21T09:41:51;1.90;;;0.70;;
81908;SDS011;71372;43.514;1.512;2023-11-21T09:44:17;2.20;;;0.80;;
81908;SDS011;71372;43.514;1.512;2023-11-21T09:46:47;2.17;;;0.50;;
81908;SDS011;71372;43.514;1.512;2023-11-21T09:49:18;0.95;;;0.60;;
81908;SDS011;71372;43.514;1.512;2023-11-21T09:54:19;0.90;;;0.50;;
81908;SDS011;71372;43.514;1.512;2023-11-21T09:56:46;1.40;;;0.63;;
81908;SDS011;71372;43.514;1.512;2023-11-21T09:59:13;2.60;;;0.60;;
81908;SDS011;71372;43.514;1.512;2023-11-21T10:01:41;2.05;;;0.70;;
81908;SDS011;71372;43.514;1.512;2023-11-21T10:04:08;5.57;;;1.10;;
81908;SDS011;71372;43.514;1.512;2023-11-21T10:06:40;2.92;;;1.00;;
81908;SDS011;71372;43.514;1.512;2023-11-21T10:09:13;1.20;;;0.70;;
81908;SDS011;71372;43.514;1.512;2023-11-21T10:11:41;1.67;;;0.80;;
81908;SDS011;71372;43.514;1.512;2023-11-21T10:14:10;1.92;;;0.90;;
81908;SDS011;71372;43.514;1.512;2023-11-21T10:16:40;1.88;;;0.90;;
81908;SDS011;71372;43.514;1.512;2023-11-21T10:19:09;0.90;;;0.50;;
81908;SDS011;71372;43.514;1.512;2023-11-21T10:21:39;1.25;;;0.80;;
81908;SDS011;71372;43.514;1.512;2023-11-21T10:24:05;3.05;;;0.80;;
81908;SDS011;71372;43.514;1.512;2023-11-21T10:26:31;2.47;;;0.80;;
81908;SDS011;71372;43.514;1.512;2023-11-21T10:28:58;2.80;;;0.80;;
81908;SDS011;71372;43.514;1.512;2023-11-21T10:31:31;2.17;;;0.70;;
81908;SDS011;71372;43.514;1.512;2023-11-21T10:34:15;1.92;;;0.82;;
81908;SDS011;71372;43.514;1.512;2023-11-21T10:36:43;2.20;;;0.68;;
81908;SDS011;71372;43.514;1.512;2023-11-21T10:39:09;3.13;;;0.63;;
81908;SDS011;71372;43.514;1.512;2023-11-21T10:41:38;1.15;;;0.60;;
81908;SDS011;71372;43.514;1.512;2023-11-21T10:44:05;1.25;;;0.60;;
81908;SDS011;71372;43.514;1.512;2023-11-21T10:46:34;2.08;;;0.68;;
81908;SDS011;71372;43.514;1.512;2023-11-21T10:49:00;1.85;;;0.60;;
81908;SDS011;71372;43.514;1.512;2023-11-21T10:51:27;0.60;;;0.40;;
81908;SDS011;71372;43.514;1.512;2023-11-21T10:53:54;1.83;;;0.55;;
81908;SDS011;71372;43.514;1.512;2023-11-21T10:56:20;1.42;;;0.60;;
81908;SDS011;71372;43.514;1.512;2023-11-21T10:58:49;1.35;;;0.50;;
81908;SDS011;71372;43.514;1.512;2023-11-21T11:01:18;2.10;;;0.90;;
81908;SDS011;71372;43.514;1.512;2023-11-21T11:03:47;2.03;;;0.90;;
81908;SDS011;71372;43.514;1.512;2023-11-21T11:06:14;2.65;;;1.45;;
81908;SDS011;71372;43.514;1.512;2023-11-21T11:08:40;2.83;;;0.90;;
81908;SDS011;71372;43.514;1.512;2023-11-21T11:11:06;2.10;;;0.98;;
81908;SDS011;71372;43.514;1.512;2023-11-21T11:13:33;3.13;;;1.38;;
81908;SDS011;71372;43.514;1.512;2023-11-21T11:15:59;3.25;;;1.27;;
81908;SDS011;71372;43.514;1.512;2023-11-21T11:18:27;3.15;;;1.35;;
81908;SDS011;71372;43.514;1.512;2023-11-21T11:20:57;3.38;;;1.30;;
81908;SDS011;71372;43.514;1.512;2023-11-21T11:26:39;3.45;;;0.85;;
81908;SDS011;71372;43.514;1.512;2023-11-21T11:31:55;1.65;;;0.82;;
81908;SDS011;71372;43.514;1.512;2023-11-21T11:34:34;2.63;;;1.10;;
81908;SDS011;71372;43.514;1.512;2023-11-21T11:37:06;1.90;;;1.20;;
81908;SDS011;71372;43.514;1.512;2023-11-21T11:39:35;3.08;;;1.20;;
81908;SDS011;71372;43.514;1.512;2023-11-21T11:42:04;2.17;;;1.20;;
81908;SDS011;71372;43.514;1.512;2023-11-21T11:47:15;2.80;;;1.10;;
81908;SDS011;71372;43.514;1.512;2023-11-21T11:55:04;3.65;;;1.95;;
81908;SDS011;71372;43.514;1.512;2023-11-21T11:57:31;2.47;;;1.88;;
81908;SDS011;71372;43.514;1.512;2023-11-21T12:00:19;4.55;;;1.30;;
81908;SDS011;71372;43.514;1.512;2023-11-21T12:02:49;3.60;;;2.50;;
81908;SDS011;71372;43.514;1.512;2023-11-21T12:05:25;2.95;;;1.30;;
81908;SDS011;71372;43.514;1.512;2023-11-21T12:07:57;3.63;;;1.75;;
81908;SDS011;71372;43.514;1.512;2023-11-21T12:10:28;4.13;;;1.70;;
81908;SDS011;71372;43.514;1.512;2023-11-21T12:13:08;4.57;;;1.60;;
81908;SDS011;71372;43.514;1.512;2023-11-21T12:15:35;4.80;;;2.95;;
81908;SDS011;71372;43.514;1.512;2023-11-21T12:18:02;4.00;;;1.20;;
81908;SDS011;71372;43.514;1.512;2023-11-21T12:20:29;2.40;;;1.48;;
81908;SDS011;71372;43.514;1.512;2023-11-21T12:22:57;3.10;;;1.52;;
81908;SDS011;71372;43.514;1.512;2023-11-21T12:25:25;6.00;;;2.40;;
81908;SDS011;71372;43.514;1.512;2023-11-21T12:27:55;4.22;;;1.92;;
81908;SDS011;71372;43.514;1.512;2023-11-21T12:35:19;3.60;;;2.30;;
81908;SDS011;71372;43.514;1.512;2023-11-21T12:37:46;3.20;;;1.70;;
81908;SDS011;71372;43.514;1.512;2023-11-21T12:40:15;3.03;;;1.80;;
81908;SDS011;71372;43.514;1.512;2023-11-21T12:42:43;2.67;;;1.48;;
81908;SDS011;71372;43.514;1.512;2023-11-21T12:47:43;1.67;;;1.17;;
81908;SDS011;71372;43.514;1.512;2023-11-21T12:50:10;2.75;;;0.75;;
81908;SDS011;71372;43.514;1.512;2023-11-21T12:52:43;2.30;;;1.00;;
81908;SDS011;71372;43.514;1.512;2023-11-21T12:55:16;2.00;;;0.82;;
81908;SDS011;71372;43.514;1.512;2023-11-21T12:57:44;1.77;;;0.88;;
81908;SDS011;71372;43.514;1.512;2023-11-21T13:00:12;1.63;;;0.68;;
81908;SDS011;71372;43.514;1.512;2023-11-21T13:02:51;1.55;;;0.93;;
81908;SDS011;71372;43.514;1.512;2023-11-21T13:05:29;2.15;;;1.00;;
81908;SDS011;71372;43.514;1.512;2023-11-21T13:08:03;1.48;;;0.93;;
81908;SDS011;71372;43.514;1.512;2023-11-21T13:10:33;1.77;;;1.00;;
81908;SDS011;71372;43.514;1.512;2023-11-21T13:13:02;1.40;;;1.00;;
81908;SDS011;71372;43.514;1.512;2023-11-21T13:15:39;2.05;;;1.08;;
81908;SDS011;71372;43.514;1.512;2023-11-21T13:18:06;1.73;;;0.82;;
81908;SDS011;71372;43.514;1.512;2023-11-21T13:20:32;1.73;;;1.13;;
81908;SDS011;71372;43.514;1.512;2023-11-21T13:22:58;4.05;;;1.30;;
81908;SDS011;71372;43.514;1.512;2023-11-21T13:25:26;4.97;;;1.23;;
81908;SDS011;71372;43.514;1.512;2023-11-21T13:27:56;1.77;;;0.90;;
81908;SDS011;71372;43.514;1.512;2023-11-21T13:30:23;3.15;;;1.20;;
81908;SDS011;71372;43.514;1.512;2023-11-21T13:32:53;1.95;;;1.13;;
81908;SDS011;71372;43.514;1.512;2023-11-21T13:35:23;3.08;;;1.55;;
81908;SDS011;71372;43.514;1.512;2023-11-21T13:38:09;3.00;;;1.35;;
81908;SDS011;71372;43.514;1.512;2023-11-21T13:40:38;2.63;;;1.30;;
81908;SDS011;71372;43.514;1.512;2023-11-21T13:43:08;3.80;;;1.40;;
81908;SDS011;71372;43.514;1.512;2023-11-21T13:45:38;2.17;;;1.30;;
81908;SDS011;71372;43.514;1.512;2023-11-21T13:48:06;1.55;;;1.00;;
81908;SDS011;71372;43.514;1.512;2023-11-21T13:50:36;3.15;;;1.67;;
81908;SDS011;71372;43.514;1.512;2023-11-21T13:53:03;2.55;;;1.50;;
81908;SDS011;71372;43.514;1.512;2023-11-21T13:55:34;2.35;;;1.63;;
81908;SDS011;71372;43.514;1.512;2023-11-21T13:58:01;4.50;;;1.60;;
81908;SDS011;71372;43.514;1.512;2023-11-21T14:00:34;2.95;;;1.63;;
81908;SDS011;71372;43.514;1.512;2023-11-21T14:03:06;3.00;;;1.85;;
81908;SDS011;71372;43.514;1.512;2023-11-21T14:05:41;2.83;;;1.38;;
81908;SDS011;71372;43.514;1.512;2023-11-21T14:08:08;3.00;;;1.90;;
81908;SDS011;71372;43.514;1.512;2023-11-21T14:10:37;2.67;;;1.35;;
81908;SDS011;71372;43.514;1.512;2023-11-21T14:13:08;2.83;;;1.48;;
81908;SDS011;71372;43.514;1.512;2023-11-21T14:15:36;1.75;;;1.10;;
81908;SDS011;71372;43.514;1.512;2023-11-21T14:18:07;2.88;;;1.42;;
81908;SDS011;71372;43.514;1.512;2023-11-21T14:20:38;3.13;;;1.50;;
81908;SDS011;71372;43.514;1.512;2023-11-21T14:23:05;2.88;;;1.70;;
81908;SDS011;71372;43.514;1.512;2023-11-21T14:25:32;1.95;;;0.90;;
81908;SDS011;71372;43.514;1.512;2023-11-21T14:27:59;3.53;;;1.77;;
81908;SDS011;71372;43.514;1.512;2023-11-21T14:30:26;2.47;;;1.42;;
81908;SDS011;71372;43.514;1.512;2023-11-21T14:32:52;3.35;;;1.70;;
81908;SDS011;71372;43.514;1.512;2023-11-21T14:35:18;2.65;;;1.50;;
81908;SDS011;71372;43.514;1.512;2023-11-21T14:37:45;2.88;;;1.35;;
81908;SDS011;71372;43.514;1.512;2023-11-21T14:40:12;2.17;;;1.50;;
81908;SDS011;71372;43.514;1.512;2023-11-21T14:42:41;2.72;;;1.60;;
81908;SDS011;71372;43.514;1.512;2023-11-21T14:45:08;4.22;;;1.77;;
81908;SDS011;71372;43.514;1.512;2023-11-21T14:47:37;3.05;;;1.50;;
81908;SDS011;71372;43.514;1.512;2023-11-21T14:50:08;3.35;;;1.67;;
81908;SDS011;71372;43.514;1.512;2023-11-21T14:55:24;1.90;;;1.40;;
81908;SDS011;71372;43.514;1.512;2023-11-21T14:58:09;3.42;;;1.60;;
81908;SDS011;71372;43.514;1.512;2023-11-21T15:00:38;3.35;;;1.38;;
81908;SDS011;71372;43.514;1.512;2023-11-21T15:03:10;3.13;;;1.60;;
81908;SDS011;71372;43.514;1.512;2023-11-21T15:05:50;2.30;;;1.50;;
81908;SDS011;71372;43.514;1.512;2023-11-21T15:08:16;3.30;;;1.50;;
81908;SDS011;71372;43.514;1.512;2023-11-21T15:10:55;2.10;;;1.42;;
81908;SDS011;71372;43.514;1.512;2023-11-21T15:13:22;2.58;;;1.55;;
81908;SDS011;71372;43.514;1.512;2023-11-21T15:15:53;5.75;;;1.33;;
81908;SDS011;71372;43.514;1.512;2023-11-21T15:18:21;4.63;;;2.10;;
81908;SDS011;71372;43.514;1.512;2023-11-21T15:20:47;2.40;;;1.63;;
81908;SDS011;71372;43.514;1.512;2023-11-21T15:23:13;3.90;;;1.73;;